Time;durP1;ratioP1;P1;durP2;ratioP2;P2;SDS_P1;SDS_P2;PMS_P1;PMS_P2;Temp;Humidity;BMP_temperature;BMP_pressure;BME280_temperature;BME280_humidity;BME280_pressure;Samples;Min_cycle;Max_cycle;Signal;HPM_P1;HPM_P2
2023/07/13 00:01:27;;;;;;;4.13;1.35;;;20.40;99.10;;;;;;4173594;28;20041;-58
2023/07/13 00:03:27;;;;;;;3.72;1.20;;;20.40;98.90;;;;;;4181359;28;20145;-58
2023/07/13 00:05:28;;;;;;;3.72;1.30;;;20.20;99.80;;;;;;4179904;28;20806;-59
2023/07/13 00:07:28;;;;;;;2.88;1.20;;;20.10;98.70;;;;;;4182847;28;20116;-58
2023/07/13 00:09:29;;;;;;;2.92;1.10;;;20.10;99.00;;;;;;4178285;28;20068;-58
2023/07/13 00:11:29;;;;;;;4.35;1.40;;;20.00;99.50;;;;;;4183471;28;20025;-58
2023/07/13 00:13:30;;;;;;;3.05;0.88;;;19.90;99.60;;;;;;4183630;28;20040;-58
2023/07/13 00:15:31;;;;;;;3.70;1.08;;;19.90;99.90;;;;;;4184773;28;20033;-58
2023/07/13 00:17:32;;;;;;;1.58;1.00;;;19.90;99.90;;;;;;4177324;28;20031;-58
2023/07/13 00:19:36;;;;;;;2.80;1.02;;;19.90;99.90;;;;;;4179353;28;20033;-59
2023/07/13 00:21:36;;;;;;;2.80;1.10;;;19.80;99.90;;;;;;4184120;28;20032;-58
2023/07/13 00:23:40;;;;;;;3.20;1.17;;;19.80;99.90;;;;;;4187550;28;20105;-59
2023/07/13 00:25:40;;;;;;;3.40;1.17;;;19.80;99.90;;;;;;4178231;28;20119;-58
2023/07/13 00:27:43;;;;;;;3.65;1.25;;;19.80;99.90;;;;;;4186938;28;20342;-58
2023/07/13 00:29:44;;;;;;;3.78;1.20;;;19.80;99.90;;;;;;4179431;28;20567;-58
2023/07/13 00:31:46;;;;;;;3.28;1.25;;;19.70;99.90;;;;;;4177732;28;20032;-60
2023/07/13 00:33:46;;;;;;;2.47;0.93;;;19.70;99.90;;;;;;4183799;28;20123;-58
2023/07/13 00:35:47;;;;;;;4.13;1.15;;;19.70;99.90;;;;;;4176155;28;20137;-59
2023/07/13 00:37:48;;;;;;;3.20;1.20;;;19.80;99.50;;;;;;4185017;28;20033;-58
2023/07/13 00:39:49;;;;;;;1.92;0.80;;;19.70;99.90;;;;;;4178059;28;20037;-58
2023/07/13 00:41:50;;;;;;;5.68;1.20;;;19.70;99.90;;;;;;4181687;28;20445;-59
2023/07/13 00:43:50;;;;;;;2.15;0.90;;;19.70;99.90;;;;;;4177915;28;20049;-58
2023/07/13 00:45:51;;;;;;;3.05;1.27;;;19.70;99.90;;;;;;4185531;28;20040;-58
2023/07/13 00:47:51;;;;;;;4.60;0.85;;;19.70;99.90;;;;;;4186838;28;20062;-58
2023/07/13 00:49:52;;;;;;;2.10;0.80;;;19.70;99.90;;;;;;4176903;28;20388;-58
2023/07/13 00:52:01;;;;;;;1.98;0.95;;;19.70;99.90;;;;;;4184759;28;20511;-59
2023/07/13 00:54:07;;;;;;;2.17;1.00;;;19.80;99.90;;;;;;4186894;28;20029;-59
2023/07/13 00:56:08;;;;;;;1.23;0.80;;;19.70;99.90;;;;;;4176621;28;20032;-59
2023/07/13 00:58:09;;;;;;;2.72;0.90;;;19.70;99.90;;;;;;4185869;28;20029;-58
2023/07/13 01:00:11;;;;;;;3.58;1.10;;;19.70;99.90;;;;;;4177786;28;20072;-61
2023/07/13 01:02:12;;;;;;;4.05;1.05;;;19.70;99.90;;;;;;4166672;28;20030;-58
2023/07/13 01:04:14;;;;;;;1.67;0.90;;;19.70;99.90;;;;;;4178260;28;20089;-58
2023/07/13 01:06:17;;;;;;;3.15;1.20;;;19.70;99.90;;;;;;4175879;28;20048;-58
2023/07/13 01:08:17;;;;;;;3.85;1.25;;;19.70;99.90;;;;;;4187355;28;20028;-59
2023/07/13 01:10:22;;;;;;;2.50;0.93;;;19.70;99.90;;;;;;4184608;28;20379;-58
2023/07/13 01:12:23;;;;;;;1.85;1.02;;;19.70;99.90;;;;;;4177193;28;20108;-58
2023/07/13 01:14:24;;;;;;;2.78;0.98;;;19.70;99.90;;;;;;4177682;28;20383;-58
2023/07/13 01:16:27;;;;;;;4.13;1.40;;;19.60;99.90;;;;;;4180403;28;20028;-58
2023/07/13 01:18:29;;;;;;;3.83;1.00;;;19.60;99.90;;;;;;4174104;28;20370;-58
2023/07/13 01:20:30;;;;;;;4.05;0.88;;;19.50;99.90;;;;;;4184425;28;20090;-58
2023/07/13 01:22:32;;;;;;;2.42;1.20;;;19.50;99.90;;;;;;4183449;28;20466;-59
2023/07/13 01:24:32;;;;;;;1.42;0.65;;;19.50;99.90;;;;;;4183711;28;20078;-58
2023/07/13 01:26:33;;;;;;;2.92;1.00;;;19.40;99.90;;;;;;4183728;28;20053;-58
2023/07/13 01:28:36;;;;;;;2.15;1.00;;;19.40;99.90;;;;;;4184616;28;20060;-59
2023/07/13 01:30:39;;;;;;;2.72;1.00;;;19.40;99.90;;;;;;4189550;28;20040;-58
2023/07/13 01:32:41;;;;;;;2.65;1.17;;;19.40;99.90;;;;;;4183270;28;20052;-59
2023/07/13 01:34:42;;;;;;;2.93;1.03;;;19.40;99.90;;;;;;4183035;28;20139;-58
2023/07/13 01:36:42;;;;;;;1.90;1.13;;;19.30;99.90;;;;;;4170468;28;20040;-58
2023/07/13 01:38:43;;;;;;;3.25;1.15;;;19.30;99.90;;;;;;4183592;28;20035;-58
2023/07/13 01:40:44;;;;;;;2.25;0.93;;;19.30;99.90;;;;;;4190545;28;20837;-58
2023/07/13 01:42:44;;;;;;;5.00;1.23;;;19.30;99.90;;;;;;4175746;28;20100;-58
2023/07/13 01:44:45;;;;;;;3.20;1.05;;;19.30;99.90;;;;;;4186410;28;20031;-58
2023/07/13 01:46:45;;;;;;;2.60;1.10;;;19.20;99.90;;;;;;4184214;28;20044;-58
2023/07/13 01:48:46;;;;;;;1.80;0.90;;;19.20;99.90;;;;;;4185437;28;20098;-58
2023/07/13 01:50:47;;;;;;;3.53;1.23;;;19.10;99.90;;;;;;4185566;28;20583;-61
2023/07/13 01:52:48;;;;;;;3.80;1.02;;;19.10;99.90;;;;;;4185930;28;20499;-58
2023/07/13 01:54:48;;;;;;;3.97;1.50;;;19.10;99.90;;;;;;4188724;28;20036;-58
2023/07/13 01:56:49;;;;;;;3.33;1.15;;;19.00;99.90;;;;;;4180291;28;20036;-58
2023/07/13 01:58:50;;;;;;;3.15;1.13;;;19.00;99.90;;;;;;4182593;28;20048;-59
2023/07/13 02:00:51;;;;;;;5.15;1.10;;;19.00;99.90;;;;;;4173834;28;20033;-58
2023/07/13 02:02:52;;;;;;;1.30;0.90;;;18.90;99.90;;;;;;4178672;28;20032;-59
2023/07/13 02:04:52;;;;;;;3.83;1.25;;;18.90;99.90;;;;;;4179207;28;20566;-59
2023/07/13 02:06:55;;;;;;;2.03;0.93;;;18.90;99.90;;;;;;4187694;28;20045;-58
2023/07/13 02:08:55;;;;;;;3.38;0.85;;;18.90;99.90;;;;;;4184123;28;20043;-58
2023/07/13 02:10:56;;;;;;;3.85;1.15;;;18.90;99.90;;;;;;4189403;28;20041;-60
2023/07/13 02:12:57;;;;;;;5.72;1.08;;;18.90;99.90;;;;;;4193392;28;20035;-60
2023/07/13 02:14:58;;;;;;;5.63;1.30;;;18.90;99.90;;;;;;4168327;28;20068;-59
2023/07/13 02:16:59;;;;;;;4.03;1.58;;;18.90;99.90;;;;;;4165985;28;20038;-59
2023/07/13 02:19:00;;;;;;;4.13;1.30;;;18.90;99.90;;;;;;4187194;28;20038;-58
2023/07/13 02:21:02;;;;;;;2.60;1.17;;;18.80;99.90;;;;;;4187580;28;20048;-58
2023/07/13 02:23:02;;;;;;;3.17;1.40;;;18.80;99.90;;;;;;4182954;28;20167;-58
2023/07/13 02:25:03;;;;;;;1.95;0.90;;;18.70;99.90;;;;;;4188167;28;20392;-60
2023/07/13 02:27:04;;;;;;;3.40;1.20;;;18.70;99.90;;;;;;4188614;28;20037;-58
2023/07/13 02:29:05;;;;;;;3.42;1.23;;;18.70;99.90;;;;;;4183626;28;20032;-59
2023/07/13 02:31:08;;;;;;;2.80;1.17;;;18.70;99.90;;;;;;4185107;28;20416;-58
2023/07/13 02:33:08;;;;;;;;;;;18.60;99.90;;;;;;4185898;28;20542;-58
2023/07/13 02:35:09;;;;;;;3.83;1.00;;;18.60;99.90;;;;;;4187592;28;19969;-59
2023/07/13 02:37:09;;;;;;;3.92;1.20;;;18.70;99.90;;;;;;4187945;28;20510;-58
2023/07/13 02:39:11;;;;;;;3.35;1.33;;;18.70;99.90;;;;;;4183213;28;20033;-58
2023/07/13 02:41:13;;;;;;;4.40;1.27;;;18.70;99.90;;;;;;4183447;28;20041;-58
2023/07/13 02:43:14;;;;;;;3.20;1.15;;;18.70;99.90;;;;;;4188677;28;20060;-58
2023/07/13 02:45:14;;;;;;;3.80;1.63;;;18.70;99.90;;;;;;4187092;28;20029;-58
2023/07/13 02:47:15;;;;;;;2.42;1.00;;;18.70;99.90;;;;;;4183174;28;20392;-58
2023/07/13 02:49:15;;;;;;;3.72;1.27;;;18.60;99.90;;;;;;4183968;28;20037;-58
2023/07/13 02:51:16;;;;;;;3.85;1.38;;;18.60;99.90;;;;;;4183899;28;20041;-58
2023/07/13 02:53:17;;;;;;;5.30;1.55;;;18.60;99.90;;;;;;4183632;28;20033;-59
2023/07/13 02:55:17;;;;;;;3.78;1.55;;;18.60;99.90;;;;;;4185499;28;20503;-58
2023/07/13 02:57:18;;;;;;;4.65;1.35;;;18.50;99.90;;;;;;4183768;28;20101;-59
2023/07/13 02:59:18;;;;;;;2.75;1.20;;;18.50;99.90;;;;;;4177561;28;20037;-59
2023/07/13 03:01:21;;;;;;;3.05;1.30;;;18.50;99.90;;;;;;4179863;28;20044;-58
2023/07/13 03:03:22;;;;;;;3.33;1.17;;;18.50;99.90;;;;;;4183201;28;20442;-58
2023/07/13 03:05:22;;;;;;;3.92;1.48;;;18.50;99.90;;;;;;4183889;28;20036;-58
2023/07/13 03:07:23;;;;;;;2.47;1.17;;;18.40;99.90;;;;;;4182781;28;20036;-57
2023/07/13 03:09:25;;;;;;;3.63;1.65;;;18.40;99.90;;;;;;4184328;28;20438;-58
2023/07/13 03:11:26;;;;;;;2.30;1.20;;;18.40;99.90;;;;;;4186037;28;20032;-58
2023/07/13 03:13:26;;;;;;;4.53;1.70;;;18.40;99.90;;;;;;4182715;28;20037;-61
2023/07/13 03:15:27;;;;;;;2.95;1.08;;;18.40;99.90;;;;;;4187266;28;20036;-59
2023/07/13 03:17:27;;;;;;;4.53;1.38;;;18.40;99.90;;;;;;4182979;28;20500;-58
2023/07/13 03:19:28;;;;;;;2.92;1.45;;;18.40;99.90;;;;;;4182069;28;20029;-58
2023/07/13 03:21:29;;;;;;;4.00;1.10;;;18.30;99.90;;;;;;4185624;28;20044;-58
2023/07/13 03:23:29;;;;;;;3.30;1.35;;;18.40;99.90;;;;;;4187936;28;20036;-58
2023/07/13 03:25:30;;;;;;;4.95;1.27;;;18.30;99.90;;;;;;4184221;28;20075;-58
2023/07/13 03:27:30;;;;;;;4.15;1.50;;;18.40;99.90;;;;;;4189338;28;20412;-58
2023/07/13 03:29:31;;;;;;;3.17;1.35;;;18.30;99.90;;;;;;4182540;28;20044;-58
2023/07/13 03:31:35;;;;;;;4.72;1.70;;;18.30;99.90;;;;;;4183116;28;20045;-58
2023/07/13 03:33:36;;;;;;;4.38;1.50;;;18.30;99.90;;;;;;4182655;28;20376;-58
2023/07/13 03:35:40;;;;;;;2.22;0.90;;;18.20;99.90;;;;;;4175289;28;20059;-58
2023/07/13 03:37:42;;;;;;;3.45;1.23;;;18.30;99.90;;;;;;4177465;28;20045;-58
2023/07/13 03:39:42;;;;;;;2.95;1.27;;;18.30;99.90;;;;;;4176138;28;20369;-58
2023/07/13 03:41:43;;;;;;;6.03;1.73;;;18.20;99.90;;;;;;4177204;28;20032;-59
2023/07/13 03:43:44;;;;;;;6.13;1.65;;;18.30;99.90;;;;;;4176887;28;20475;-58
2023/07/13 03:45:44;;;;;;;3.40;1.52;;;18.20;99.90;;;;;;4172825;28;20256;-59
2023/07/13 03:47:45;;;;;;;2.22;0.98;;;18.20;99.90;;;;;;4176236;28;20511;-58
2023/07/13 03:49:46;;;;;;;5.70;1.60;;;18.20;99.90;;;;;;4175389;28;20366;-58
2023/07/13 03:51:46;;;;;;;5.50;1.75;;;18.20;99.90;;;;;;4176687;28;20037;-58
2023/07/13 03:53:48;;;;;;;2.65;1.33;;;18.20;99.90;;;;;;4177429;28;20033;-58
2023/07/13 03:55:48;;;;;;;3.92;1.13;;;18.20;99.90;;;;;;4175749;28;20091;-58
2023/07/13 03:57:58;;;;;;;3.55;1.30;;;18.10;99.90;;;;;;4177471;28;20473;-58
2023/07/13 03:59:59;;;;;;;6.32;1.65;;;18.20;99.90;;;;;;4174811;28;20079;-58
2023/07/13 04:02:00;;;;;;;2.35;1.25;;;18.20;99.90;;;;;;4164796;28;20124;-59
2023/07/13 04:04:01;;;;;;;4.35;1.58;;;18.20;99.90;;;;;;4165137;28;20044;-58
2023/07/13 04:06:03;;;;;;;4.78;1.67;;;18.20;99.90;;;;;;4161375;28;20396;-59
2023/07/13 04:08:04;;;;;;;;;;;18.20;99.90;;;;;;4168358;28;20463;-59
2023/07/13 04:10:05;;;;;;;6.57;1.90;;;18.10;99.90;;;;;;4168284;28;20012;-60
2023/07/13 04:12:06;;;;;;;2.78;1.63;;;18.10;99.90;;;;;;4166302;28;20037;-58
2023/07/13 04:14:07;;;;;;;3.13;1.30;;;18.10;99.90;;;;;;4168143;28;20132;-59
2023/07/13 04:16:07;;;;;;;8.60;1.75;;;18.10;99.90;;;;;;4164581;28;20053;-58
2023/07/13 04:18:08;;;;;;;3.75;1.27;;;18.10;99.90;;;;;;4159727;28;20029;-58
2023/07/13 04:20:09;;;;;;;2.97;1.20;;;18.10;99.90;;;;;;4153400;28;20034;-59
2023/07/13 04:22:10;;;;;;;5.85;1.67;;;18.10;99.90;;;;;;4160793;28;20060;-58
2023/07/13 04:24:11;;;;;;;5.22;1.63;;;18.00;99.90;;;;;;4161072;28;20049;-58
2023/07/13 04:26:11;;;;;;;5.13;1.50;;;18.10;99.90;;;;;;4159874;28;20141;-59
2023/07/13 04:28:12;;;;;;;4.82;1.77;;;18.10;99.90;;;;;;4162596;28;20041;-58
2023/07/13 04:30:13;;;;;;;2.78;1.20;;;18.10;99.90;;;;;;4156601;28;20037;-59
2023/07/13 04:32:13;;;;;;;5.68;1.77;;;18.10;99.90;;;;;;4160587;28;20033;-58
2023/07/13 04:34:14;;;;;;;3.42;1.27;;;18.00;99.90;;;;;;4159658;28;20086;-58
2023/07/13 04:36:16;;;;;;;3.60;1.60;;;18.10;99.90;;;;;;4170302;28;20175;-58
2023/07/13 04:38:16;;;;;;;4.07;1.52;;;18.10;99.90;;;;;;4173921;28;20558;-58
2023/07/13 04:40:18;;;;;;;3.92;1.40;;;18.00;99.90;;;;;;4172843;28;20029;-58
2023/07/13 04:42:19;;;;;;;5.47;1.88;;;18.00;99.90;;;;;;4175044;28;20128;-58
2023/07/13 04:44:19;;;;;;;4.28;1.60;;;17.90;99.90;;;;;;4172787;28;20033;-58
2023/07/13 04:46:20;;;;;;;4.72;1.42;;;18.00;99.90;;;;;;4173129;28;20476;-58
2023/07/13 04:48:21;;;;;;;6.38;1.60;;;18.00;99.90;;;;;;4172737;28;20045;-59
2023/07/13 04:50:23;;;;;;;3.25;1.67;;;17.90;99.90;;;;;;4161509;28;20120;-59
2023/07/13 04:52:24;;;;;;;2.92;1.33;;;18.00;99.90;;;;;;4151247;28;20026;-58
2023/07/13 04:54:25;;;;;;;3.75;1.58;;;18.00;99.90;;;;;;4168550;28;20107;-58
2023/07/13 04:56:26;;;;;;;6.47;1.90;;;17.90;99.90;;;;;;4171618;28;20035;-58
2023/07/13 04:58:27;;;;;;;7.82;1.95;;;17.90;99.90;;;;;;4175172;28;20051;-58
2023/07/13 05:00:29;;;;;;;4.15;1.52;;;18.00;99.90;;;;;;4172313;28;20060;-58
2023/07/13 05:02:31;;;;;;;9.98;1.80;;;18.00;99.90;;;;;;4174502;28;20486;-58
2023/07/13 05:04:31;;;;;;;4.90;1.87;;;18.00;99.90;;;;;;4176114;28;20031;-59
2023/07/13 05:06:33;;;;;;;3.70;1.52;;;18.00;99.90;;;;;;4172039;28;20488;-58
2023/07/13 05:08:34;;;;;;;4.18;1.73;;;18.00;99.90;;;;;;4168684;28;20056;-59
2023/07/13 05:10:35;;;;;;;3.63;1.90;;;18.00;99.90;;;;;;4170581;28;20444;-58
2023/07/13 05:12:36;;;;;;;3.67;1.42;;;18.10;99.90;;;;;;4169273;28;20029;-58
2023/07/13 05:14:36;;;;;;;5.97;2.05;;;18.00;99.90;;;;;;4167825;28;20033;-58
2023/07/13 05:16:37;;;;;;;6.53;1.52;;;18.00;99.90;;;;;;4170077;28;20070;-58
2023/07/13 05:18:38;;;;;;;6.25;1.90;;;18.00;99.90;;;;;;4172426;28;20033;-58
2023/07/13 05:20:38;;;;;;;3.33;1.33;;;18.00;99.90;;;;;;4166781;28;20037;-58
2023/07/13 05:22:39;;;;;;;6.07;1.60;;;18.00;99.90;;;;;;4156309;28;20451;-58
2023/07/13 05:24:39;;;;;;;11.60;2.45;;;18.00;99.90;;;;;;4158405;28;20029;-59
2023/07/13 05:26:40;;;;;;;5.88;2.15;;;18.00;99.90;;;;;;4153864;28;20044;-58
2023/07/13 05:28:42;;;;;;;6.80;2.08;;;18.00;99.90;;;;;;4151648;28;20102;-59
2023/07/13 05:30:46;;;;;;;5.32;2.10;;;18.00;99.90;;;;;;4168748;28;20022;-58
2023/07/13 05:32:47;;;;;;;8.60;2.25;;;18.00;99.90;;;;;;4174168;28;20146;-58
2023/07/13 05:34:47;;;;;;;5.47;1.95;;;18.00;99.90;;;;;;4172032;28;20394;-58
2023/07/13 05:36:49;;;;;;;4.78;1.80;;;18.00;99.90;;;;;;4171675;28;20443;-58
2023/07/13 05:38:49;;;;;;;6.07;1.77;;;18.00;99.90;;;;;;4167761;28;20033;-58
2023/07/13 05:40:50;;;;;;;4.00;2.00;;;18.10;99.90;;;;;;4163839;28;20086;-58
2023/07/13 05:42:51;;;;;;;7.80;2.30;;;18.10;99.90;;;;;;4153091;28;20045;-58
2023/07/13 05:44:52;;;;;;;5.65;1.85;;;18.10;99.90;;;;;;4157621;28;20469;-59
2023/07/13 05:46:52;;;;;;;9.77;2.45;;;18.20;99.90;;;;;;4155939;28;20404;-59
2023/07/13 05:48:53;;;;;;;7.45;2.33;;;18.20;99.90;;;;;;4156179;28;20037;-58
2023/07/13 05:50:53;;;;;;;8.40;2.65;;;18.20;99.90;;;;;;4148824;28;20033;-58
2023/07/13 05:52:54;;;;;;;8.95;2.00;;;18.20;99.90;;;;;;4152194;28;20076;-59
2023/07/13 05:54:55;;;;;;;4.80;1.92;;;18.30;99.90;;;;;;4154724;28;20041;-59
2023/07/13 05:56:55;;;;;;;9.82;2.45;;;18.30;99.90;;;;;;4152524;28;20038;-59
2023/07/13 05:58:56;;;;;;;5.75;2.40;;;18.30;99.90;;;;;;4140033;28;20076;-58
2023/07/13 06:01:07;;;;;;;4.70;1.90;;;18.40;99.90;;;;;;4149736;28;20149;-59
2023/07/13 06:03:07;;;;;;;4.68;2.10;;;18.60;99.90;;;;;;4160520;28;20033;-58
2023/07/13 06:05:08;;;;;;;6.65;1.80;;;18.90;99.90;;;;;;4158063;28;20388;-64
2023/07/13 06:07:09;;;;;;;5.13;1.98;;;19.20;99.90;;;;;;4161595;28;20053;-58
2023/07/13 06:09:09;;;;;;;5.18;2.15;;;19.60;99.90;;;;;;4134830;28;20041;-58
2023/07/13 06:11:18;;;;;;;6.90;2.30;;;19.80;99.90;;;;;;4154779;28;20044;-58
2023/07/13 06:13:19;;;;;;;6.40;2.15;;;20.00;99.90;;;;;;4156924;28;20520;-58
2023/07/13 06:15:19;;;;;;;8.57;2.80;;;20.10;99.90;;;;;;4162377;28;20122;-59
2023/07/13 06:17:20;;;;;;;11.65;2.33;;;20.10;99.90;;;;;;4165656;28;20050;-59
2023/07/13 06:19:20;;;;;;;10.10;2.60;;;20.00;99.90;;;;;;4161431;28;20053;-58
2023/07/13 06:21:22;;;;;;;6.60;2.38;;;20.00;99.90;;;;;;4161680;28;20041;-59
2023/07/13 06:23:24;;;;;;;7.07;2.72;;;19.90;99.90;;;;;;4162814;28;20435;-59
2023/07/13 06:25:26;;;;;;;7.68;2.40;;;19.80;99.90;;;;;;4160297;28;20365;-58
2023/07/13 06:27:27;;;;;;;5.25;2.13;;;19.90;99.90;;;;;;4158471;28;20045;-59
2023/07/13 06:29:28;;;;;;;7.82;2.58;;;19.90;99.90;;;;;;4161976;28;20060;-58
2023/07/13 06:31:28;;;;;;;7.10;2.55;;;19.90;99.90;;;;;;4153546;28;20040;-59
2023/07/13 06:33:29;;;;;;;7.65;2.53;;;20.00;99.90;;;;;;4162054;28;20112;-58
2023/07/13 06:35:29;;;;;;;6.85;2.65;;;19.90;99.90;;;;;;4167398;28;20055;-58
2023/07/13 06:37:30;;;;;;;7.32;2.42;;;19.90;99.90;;;;;;4177700;28;20025;-59
2023/07/13 06:39:30;;;;;;;6.95;2.17;;;19.80;99.90;;;;;;4176281;28;20553;-62
2023/07/13 06:41:32;;;;;;;7.82;2.20;;;19.80;99.90;;;;;;4174371;28;20177;-59
2023/07/13 06:43:33;;;;;;;4.82;1.90;;;19.70;99.90;;;;;;4158137;28;20519;-58
2023/07/13 06:45:42;;;;;;;6.43;2.35;;;19.80;99.90;;;;;;4175813;28;20033;-58
2023/07/13 06:47:42;;;;;;;4.97;2.05;;;19.70;99.90;;;;;;4158618;28;20037;-59
2023/07/13 06:49:43;;;;;;;10.52;2.88;;;19.70;99.90;;;;;;4158636;28;20040;-59
2023/07/13 06:51:43;;;;;;;10.25;2.60;;;19.60;99.90;;;;;;4157285;28;20026;-59
2023/07/13 06:53:44;;;;;;;4.75;2.17;;;19.60;99.90;;;;;;4162315;28;20033;-59
2023/07/13 06:55:46;;;;;;;6.30;2.13;;;19.60;99.90;;;;;;4159465;28;20022;-59
2023/07/13 06:57:46;;;;;;;7.28;2.40;;;19.70;99.90;;;;;;4160095;28;20033;-59
2023/07/13 06:59:47;;;;;;;8.23;2.80;;;19.60;99.90;;;;;;4165846;28;20043;-58
2023/07/13 07:01:47;;;;;;;8.18;2.65;;;19.50;99.90;;;;;;4173581;28;20033;-59
2023/07/13 07:03:48;;;;;;;5.13;2.28;;;19.50;99.90;;;;;;4173491;28;20086;-59
2023/07/13 07:05:49;;;;;;;7.55;2.25;;;19.50;99.90;;;;;;4171726;28;20034;-58
2023/07/13 07:07:50;;;;;;;7.15;2.50;;;19.50;99.90;;;;;;4166361;28;20033;-59
2023/07/13 07:09:51;;;;;;;10.75;2.80;;;19.40;99.90;;;;;;4163657;28;20041;-58
2023/07/13 07:11:51;;;;;;;7.78;2.33;;;19.50;99.90;;;;;;4169928;28;20072;-58
2023/07/13 07:13:53;;;;;;;7.13;2.85;;;19.50;99.90;;;;;;4168371;28;20040;-58
2023/07/13 07:15:54;;;;;;;6.30;2.50;;;19.50;99.90;;;;;;4169563;28;20040;-58
2023/07/13 07:17:54;;;;;;;8.10;2.90;;;19.60;99.90;;;;;;4172864;28;20033;-59
2023/07/13 07:19:55;;;;;;;7.03;2.63;;;19.50;99.90;;;;;;4169287;28;20064;-59
2023/07/13 07:21:55;;;;;;;5.88;2.58;;;19.40;99.90;;;;;;4173445;28;20451;-58
2023/07/13 07:23:56;;;;;;;7.55;2.60;;;19.40;99.90;;;;;;4169861;28;20036;-58
2023/07/13 07:25:57;;;;;;;8.07;2.38;;;19.40;99.90;;;;;;4173228;28;20033;-59
2023/07/13 07:27:59;;;;;;;4.55;2.10;;;19.50;99.90;;;;;;4168855;28;20036;-60
2023/07/13 07:29:59;;;;;;;10.52;2.95;;;19.40;99.90;;;;;;4146547;28;20041;-60
2023/07/13 07:32:00;;;;;;;7.45;2.40;;;19.40;99.90;;;;;;4168659;28;20037;-60
2023/07/13 07:34:01;;;;;;;10.10;2.85;;;19.40;99.90;;;;;;4167916;28;20041;-60
2023/07/13 07:36:03;;;;;;;8.65;3.13;;;19.30;99.90;;;;;;4176320;28;20060;-60
2023/07/13 07:38:04;;;;;;;6.47;2.80;;;19.40;99.90;;;;;;4158476;28;20037;-61
2023/07/13 07:40:05;;;;;;;8.85;2.92;;;19.40;99.90;;;;;;4157369;28;20500;-61
2023/07/13 07:42:06;;;;;;;9.82;3.10;;;19.40;99.90;;;;;;4160568;28;20033;-60
2023/07/13 07:44:09;;;;;;;7.13;2.58;;;19.40;99.90;;;;;;4154817;28;20061;-60
2023/07/13 07:46:10;;;;;;;6.47;2.50;;;19.40;99.90;;;;;;4156950;28;20033;-60
2023/07/13 07:48:11;;;;;;;10.57;3.22;;;19.50;99.90;;;;;;4154612;28;20043;-60
2023/07/13 07:50:11;;;;;;;7.43;2.65;;;19.40;99.90;;;;;;4158528;28;20042;-61
2023/07/13 07:52:12;;;;;;;12.93;3.15;;;19.40;99.90;;;;;;4157388;28;20072;-65
2023/07/13 07:54:13;;;;;;;6.85;2.60;;;19.50;99.90;;;;;;4158819;28;20117;-61
2023/07/13 07:56:19;;;;;;;7.35;2.75;;;19.50;99.90;;;;;;4155023;28;20481;-60
2023/07/13 07:58:20;;;;;;;6.20;2.30;;;19.60;99.90;;;;;;4158298;28;20049;-60
2023/07/13 08:00:21;;;;;;;8.10;2.65;;;19.60;99.90;;;;;;4156333;28;20130;-60
2023/07/13 08:02:22;;;;;;;10.95;2.85;;;19.70;99.90;;;;;;4158122;28;20099;-60
2023/07/13 08:04:22;;;;;;;9.30;2.65;;;19.70;99.90;;;;;;4160963;28;20125;-60
2023/07/13 08:06:24;;;;;;;5.97;2.72;;;19.70;99.90;;;;;;4157290;28;20490;-61
2023/07/13 08:08:25;;;;;;;9.52;2.63;;;19.80;99.90;;;;;;4154793;28;20428;-60
2023/07/13 08:10:26;;;;;;;6.15;2.10;;;19.80;99.90;;;;;;4164147;28;20045;-60
2023/07/13 08:12:27;;;;;;;6.30;2.42;;;19.80;99.90;;;;;;4162559;28;20029;-61
2023/07/13 08:14:27;;;;;;;10.18;2.83;;;19.90;99.90;;;;;;4161940;28;20119;-60
2023/07/13 08:16:28;;;;;;;5.00;2.35;;;19.90;99.90;;;;;;4158292;28;20489;-61
2023/07/13 08:18:29;;;;;;;15.32;3.63;;;19.90;99.90;;;;;;4159272;28;20349;-61
2023/07/13 08:20:29;;;;;;;6.47;2.35;;;19.90;99.90;;;;;;4162365;28;20059;-61
2023/07/13 08:22:30;;;;;;;8.30;2.70;;;19.90;99.90;;;;;;4157785;28;20686;-61
2023/07/13 08:24:30;;;;;;;4.40;2.15;;;20.00;99.90;;;;;;4156077;28;20029;-61
2023/07/13 08:26:31;;;;;;;5.63;2.45;;;20.00;99.90;;;;;;4163179;28;20113;-61
2023/07/13 08:28:33;;;;;;;7.63;2.92;;;20.00;99.90;;;;;;4151517;28;20116;-61
2023/07/13 08:30:33;;;;;;;12.73;3.27;;;20.00;99.90;;;;;;4153066;28;20416;-60
2023/07/13 08:32:36;;;;;;;7.18;2.50;;;20.10;99.90;;;;;;4153036;28;20120;-61
2023/07/13 08:34:36;;;;;;;9.75;2.90;;;20.10;99.90;;;;;;4155263;28;20026;-62
2023/07/13 08:36:37;;;;;;;4.70;2.13;;;20.10;99.90;;;;;;4170039;28;20561;-61
2023/07/13 08:38:37;;;;;;;8.13;2.92;;;20.20;99.90;;;;;;4168234;28;20083;-61
2023/07/13 08:40:39;;;;;;;7.95;2.65;;;20.20;99.90;;;;;;4162646;28;20465;-61
2023/07/13 08:42:45;;;;;;;8.45;3.05;;;20.20;99.90;;;;;;4172520;28;20033;-61
2023/07/13 08:45:14;;;;;;;7.43;2.65;;;20.30;99.90;;;;;;4172176;28;20049;-61
2023/07/13 08:47:16;;;;;;;6.55;2.67;;;20.20;99.90;;;;;;4172353;28;20032;-61
2023/07/13 08:49:22;;;;;;;8.13;2.50;;;20.30;99.90;;;;;;4169726;28;20045;-61
2023/07/13 08:51:40;;;;;;;10.32;3.40;;;20.40;99.90;;;;;;4171140;28;20040;-61
2023/07/13 08:53:47;;;;;;;5.78;2.60;;;20.40;99.90;;;;;;4151023;28;20033;-61
2023/07/13 08:55:55;;;;;;;3.90;2.20;;;20.50;99.90;;;;;;4165019;28;20151;-60
2023/07/13 08:58:03;;;;;;;8.85;2.70;;;20.50;99.90;;;;;;4166128;28;20045;-61
2023/07/13 09:00:05;;;;;;;5.90;2.53;;;20.60;99.90;;;;;;4171927;28;20559;-61
2023/07/13 09:02:40;;;;;;;7.82;2.63;;;20.60;99.90;;;;;;4169024;28;20037;-61
2023/07/13 09:04:59;;;;;;;6.90;2.47;;;20.70;99.90;;;;;;4159541;28;20086;-61
2023/07/13 09:07:17;;;;;;;7.15;2.75;;;20.80;99.90;;;;;;4169133;28;20025;-61
2023/07/13 09:10:01;;;;;;;10.70;2.78;;;20.80;99.90;;;;;;4150181;28;20590;-61
2023/07/13 09:12:18;;;;;;;8.73;2.88;;;20.90;99.90;;;;;;4169228;28;20029;-61
2023/07/13 09:14:50;;;;;;;5.85;2.63;;;21.10;99.90;;;;;;4160035;28;20117;-61
2023/07/13 09:16:51;;;;;;;5.35;2.13;;;21.20;99.90;;;;;;4181642;28;20041;-61
2023/07/13 09:18:56;;;;;;;6.97;2.30;;;21.30;99.90;;;;;;4174373;28;20056;-61
2023/07/13 09:21:20;;;;;;;6.35;2.50;;;21.40;99.90;;;;;;4173896;28;20033;-61
2023/07/13 09:23:23;;;;;;;8.82;2.85;;;21.40;99.90;;;;;;4173153;28;20388;-61
2023/07/13 09:25:31;;;;;;;8.93;2.85;;;21.50;99.90;;;;;;4178431;28;20029;-61
2023/07/13 09:27:41;;;;;;;9.55;2.97;;;21.50;99.90;;;;;;4172729;28;20059;-61
2023/07/13 09:30:22;;;;;;;9.38;3.22;;;21.60;99.90;;;;;;4156383;28;20042;-61
2023/07/13 09:32:26;;;;;;;7.18;2.45;;;21.70;99.90;;;;;;4079723;29;20552;-61
2023/07/13 09:34:26;;;;;;;8.68;2.80;;;21.90;99.90;;;;;;4098563;28;20046;-61
2023/07/13 09:36:34;;;;;;;9.27;3.50;;;21.80;99.90;;;;;;4099579;28;20434;-61
2023/07/13 09:38:35;;;;;;;11.00;2.95;;;21.90;99.90;;;;;;4140307;28;20042;-61
2023/07/13 09:40:46;;;;;;;9.63;2.67;;;22.00;99.90;;;;;;4148011;28;20121;-61
2023/07/13 09:42:47;;;;;;;9.27;2.88;;;22.00;99.90;;;;;;4139384;28;20042;-61
2023/07/13 09:44:48;;;;;;;6.50;2.67;;;22.10;99.90;;;;;;4146017;28;20118;-61
2023/07/13 09:46:58;;;;;;;11.35;3.28;;;22.20;99.90;;;;;;4140293;28;20030;-61
2023/07/13 09:48:58;;;;;;;7.70;2.20;;;22.20;99.90;;;;;;4150596;28;20034;-61
2023/07/13 09:51:12;;;;;;;7.50;2.53;;;22.20;99.90;;;;;;4142235;28;20499;-61
2023/07/13 09:53:19;;;;;;;5.40;2.45;;;22.30;99.90;;;;;;4134499;28;20033;-62
2023/07/13 09:55:36;;;;;;;6.63;2.60;;;22.30;99.90;;;;;;4140897;28;20030;-61
2023/07/13 09:57:47;;;;;;;7.97;2.80;;;22.50;99.90;;;;;;4161417;28;20487;-61
2023/07/13 09:59:49;;;;;;;5.43;1.83;;;22.50;99.90;;;;;;4158871;28;20100;-61
2023/07/13 10:01:50;;;;;;;;;;;22.60;99.90;;;;;;4157874;28;20075;-61
2023/07/13 10:03:54;;;;;;;5.90;2.08;;;22.60;99.90;;;;;;4160848;28;20553;-61
2023/07/13 10:06:10;;;;;;;7.55;1.85;;;22.60;99.90;;;;;;4159590;28;20043;-61
2023/07/13 10:08:30;;;;;;;6.15;2.20;;;22.70;99.90;;;;;;4158899;28;20046;-61
2023/07/13 10:10:30;;;;;;;5.35;1.88;;;22.80;99.90;;;;;;4154387;28;20037;-61
2023/07/13 10:12:36;;;;;;;4.82;1.83;;;22.70;99.90;;;;;;4154903;28;20034;-61
2023/07/13 10:14:39;;;;;;;8.63;2.28;;;22.70;99.90;;;;;;4133076;28;20061;-61
2023/07/13 10:16:43;;;;;;;6.35;2.00;;;22.70;99.90;;;;;;4160904;28;20041;-61
2023/07/13 10:18:50;;;;;;;8.40;2.47;;;22.70;99.90;;;;;;4142768;28;20037;-62
2023/07/13 10:21:00;;;;;;;4.32;2.03;;;22.80;99.90;;;;;;4151782;28;20041;-61
2023/07/13 10:23:20;;;;;;;12.95;3.35;;;22.90;99.90;;;;;;4157006;28;20407;-61
2023/07/13 10:25:26;;;;;;;5.15;2.08;;;22.90;99.90;;;;;;4157950;28;20116;-61
2023/07/13 10:27:36;;;;;;;7.22;2.10;;;22.90;99.90;;;;;;4156152;28;20065;-61
2023/07/13 10:29:41;;;;;;;7.05;2.00;;;23.00;99.90;;;;;;4146330;28;20047;-61
2023/07/13 10:31:45;;;;;;;3.80;1.58;;;23.10;99.90;;;;;;4133294;28;20362;-66
2023/07/13 10:33:45;;;;;;;;;;;23.10;99.90;;;;;;4145788;28;20045;-63
2023/07/13 10:35:48;;;;;;;6.80;2.05;;;23.10;99.90;;;;;;4153109;28;20372;-62
2023/07/13 10:37:53;;;;;;;4.68;2.15;;;23.20;99.90;;;;;;4177227;28;20399;-61
2023/07/13 10:39:57;;;;;;;6.97;2.20;;;23.30;99.90;;;;;;4176051;28;20047;-61